sensor_id;sensor_type;location;lat;lon;timestamp;pressure;altitude;pressure_sealevel;temperature;humidity
15263;BME280;7733;51.554;13.590;2022-10-30T00:00:34;100858.00;;;15.66;96.69
15263;BME280;7733;51.554;13.590;2022-10-30T00:03:00;100863.84;;;15.44;97.94
15263;BME280;7733;51.554;13.590;2022-10-30T00:05:26;100856.88;;;15.40;97.20
15263;BME280;7733;51.554;13.590;2022-10-30T00:07:55;100860.09;;;15.53;96.04
15263;BME280;7733;51.554;13.590;2022-10-30T00:10:21;100852.22;;;15.50;96.51
15263;BME280;7733;51.554;13.590;2022-10-30T00:12:47;100846.91;;;15.51;96.09
15263;BME280;7733;51.554;13.590;2022-10-30T00:15:13;100854.84;;;15.51;95.84
15263;BME280;7733;51.554;13.590;2022-10-30T00:17:39;100839.66;;;15.60;95.00
15263;BME280;7733;51.554;13.590;2022-10-30T00:20:06;100838.75;;;15.61;94.78
15263;BME280;7733;51.554;13.590;2022-10-30T00:22:31;100835.13;;;15.65;94.07
15263;BME280;7733;51.554;13.590;2022-10-30T00:24:57;100828.66;;;15.41;96.09
15263;BME280;7733;51.554;13.590;2022-10-30T00:27:22;100832.13;;;15.44;96.00
15263;BME280;7733;51.554;13.590;2022-10-30T00:29:48;100826.84;;;15.44;96.41
15263;BME280;7733;51.554;13.590;2022-10-30T00:32:14;100828.41;;;15.51;95.80
15263;BME280;7733;51.554;13.590;2022-10-30T00:34:39;100828.19;;;15.59;95.29
15263;BME280;7733;51.554;13.590;2022-10-30T00:37:05;100822.00;;;15.60;95.08
15263;BME280;7733;51.554;13.590;2022-10-30T00:39:30;100822.09;;;15.56;95.88
15263;BME280;7733;51.554;13.590;2022-10-30T00:41:56;100825.50;;;15.61;95.36
15263;BME280;7733;51.554;13.590;2022-10-30T00:44:46;100831.72;;;15.60;95.71
15263;BME280;7733;51.554;13.590;2022-10-30T00:47:25;100836.81;;;15.67;94.94
15263;BME280;7733;51.554;13.590;2022-10-30T00:50:18;100830.00;;;15.57;95.34
15263;BME280;7733;51.554;13.590;2022-10-30T00:53:12;100827.19;;;15.65;95.00
15263;BME280;7733;51.554;13.590;2022-10-30T00:55:49;100828.06;;;15.65;94.92
15263;BME280;7733;51.554;13.590;2022-10-30T00:58:23;100824.41;;;15.69;95.23
15263;BME280;7733;51.554;13.590;2022-10-30T01:00:54;100824.53;;;15.65;95.95
15263;BME280;7733;51.554;13.590;2022-10-30T01:03:22;100815.59;;;15.69;96.07
15263;BME280;7733;51.554;13.590;2022-10-30T01:05:55;100811.28;;;15.66;95.74
15263;BME280;7733;51.554;13.590;2022-10-30T01:08:22;100815.56;;;15.70;95.67
15263;BME280;7733;51.554;13.590;2022-10-30T01:10:48;100809.53;;;15.65;95.79
15263;BME280;7733;51.554;13.590;2022-10-30T01:13:16;100817.59;;;15.61;96.58
15263;BME280;7733;51.554;13.590;2022-10-30T01:16:15;100811.19;;;15.69;95.58
15263;BME280;7733;51.554;13.590;2022-10-30T01:33:24;100793.72;;;15.64;96.10
15263;BME280;7733;51.554;13.590;2022-10-30T01:36:37;100790.13;;;15.66;96.41
15263;BME280;7733;51.554;13.590;2022-10-30T01:39:16;100789.03;;;15.73;95.96
15263;BME280;7733;51.554;13.590;2022-10-30T01:41:43;100778.59;;;15.69;96.74
15263;BME280;7733;51.554;13.590;2022-10-30T01:44:36;100772.63;;;15.62;97.82
15263;BME280;7733;51.554;13.590;2022-10-30T01:47:33;100774.97;;;15.71;96.79
15263;BME280;7733;51.554;13.590;2022-10-30T01:50:44;100775.81;;;15.73;96.64
15263;BME280;7733;51.554;13.590;2022-10-30T01:53:15;100766.19;;;15.71;96.69
15263;BME280;7733;51.554;13.590;2022-10-30T01:56:14;100766.22;;;15.69;96.93
15263;BME280;7733;51.554;13.590;2022-10-30T01:59:10;100769.78;;;15.68;97.37
15263;BME280;7733;51.554;13.590;2022-10-30T02:01:38;100772.44;;;15.68;97.02
15263;BME280;7733;51.554;13.590;2022-10-30T02:04:07;100777.06;;;15.60;97.78
15263;BME280;7733;51.554;13.590;2022-10-30T02:06:35;100782.03;;;15.71;96.57
15263;BME280;7733;51.554;13.590;2022-10-30T02:09:02;100782.66;;;15.48;98.28
15263;BME280;7733;51.554;13.590;2022-10-30T02:11:30;100785.13;;;15.21;99.38
15263;BME280;7733;51.554;13.590;2022-10-30T02:13:58;100780.63;;;15.27;99.11
15263;BME280;7733;51.554;13.590;2022-10-30T02:16:25;100779.25;;;15.44;97.88
15263;BME280;7733;51.554;13.590;2022-10-30T02:18:51;100776.38;;;15.52;97.09
15263;BME280;7733;51.554;13.590;2022-10-30T02:21:17;100782.63;;;15.49;96.72
15263;BME280;7733;51.554;13.590;2022-10-30T02:23:42;100778.16;;;15.51;97.02
15263;BME280;7733;51.554;13.590;2022-10-30T02:26:08;100777.75;;;15.34;99.23
15263;BME280;7733;51.554;13.590;2022-10-30T02:28:33;100775.69;;;15.45;98.12
15263;BME280;7733;51.554;13.590;2022-10-30T02:30:59;100780.75;;;15.53;98.14
15263;BME280;7733;51.554;13.590;2022-10-30T02:33:25;100786.03;;;15.53;98.01
15263;BME280;7733;51.554;13.590;2022-10-30T02:35:51;100787.63;;;15.62;97.63
15263;BME280;7733;51.554;13.590;2022-10-30T02:38:17;100787.53;;;15.65;97.43
15263;BME280;7733;51.554;13.590;2022-10-30T02:40:43;100782.34;;;15.60;97.88
15263;BME280;7733;51.554;13.590;2022-10-30T02:43:08;100784.06;;;15.63;97.53
15263;BME280;7733;51.554;13.590;2022-10-30T02:45:34;100774.31;;;15.65;97.40
15263;BME280;7733;51.554;13.590;2022-10-30T02:48:00;100772.34;;;15.71;96.37
15263;BME280;7733;51.554;13.590;2022-10-30T02:50:26;100771.47;;;15.71;96.35
15263;BME280;7733;51.554;13.590;2022-10-30T02:52:52;100771.69;;;15.63;96.31
15263;BME280;7733;51.554;13.590;2022-10-30T02:55:17;100771.75;;;15.62;96.63
15263;BME280;7733;51.554;13.590;2022-10-30T02:57:43;100778.59;;;15.69;95.91
15263;BME280;7733;51.554;13.590;2022-10-30T03:00:10;100780.56;;;15.61;96.27
15263;BME280;7733;51.554;13.590;2022-10-30T03:02:35;100775.31;;;15.59;96.90
15263;BME280;7733;51.554;13.590;2022-10-30T03:05:01;100788.41;;;15.31;99.15
15263;BME280;7733;51.554;13.590;2022-10-30T03:07:27;100785.91;;;15.58;97.45
15263;BME280;7733;51.554;13.590;2022-10-30T03:09:52;100778.97;;;15.53;97.84
15263;BME280;7733;51.554;13.590;2022-10-30T03:12:20;100770.41;;;15.45;98.77
15263;BME280;7733;51.554;13.590;2022-10-30T03:14:45;100766.81;;;15.48;98.52
15263;BME280;7733;51.554;13.590;2022-10-30T03:17:11;100769.50;;;15.46;98.28
15263;BME280;7733;51.554;13.590;2022-10-30T03:19:36;100767.56;;;15.51;99.78
15263;BME280;7733;51.554;13.590;2022-10-30T03:22:03;100764.84;;;15.55;98.56
15263;BME280;7733;51.554;13.590;2022-10-30T03:24:28;100746.34;;;15.55;98.57
15263;BME280;7733;51.554;13.590;2022-10-30T03:26:54;100757.63;;;15.63;98.09
15263;BME280;7733;51.554;13.590;2022-10-30T03:29:19;100773.06;;;15.45;99.63
15263;BME280;7733;51.554;13.590;2022-10-30T03:31:45;100759.00;;;15.43;99.97
15263;BME280;7733;51.554;13.590;2022-10-30T03:34:11;100738.78;;;15.42;100.00
15263;BME280;7733;51.554;13.590;2022-10-30T03:36:37;100734.41;;;15.40;100.00
15263;BME280;7733;51.554;13.590;2022-10-30T03:39:03;100757.44;;;15.36;100.00
15263;BME280;7733;51.554;13.590;2022-10-30T03:41:29;100779.75;;;15.26;100.00
15263;BME280;7733;51.554;13.590;2022-10-30T03:43:55;100792.06;;;15.27;100.00
15263;BME280;7733;51.554;13.590;2022-10-30T03:46:20;100778.78;;;15.29;100.00
15263;BME280;7733;51.554;13.590;2022-10-30T03:48:49;100767.09;;;15.37;100.00
15263;BME280;7733;51.554;13.590;2022-10-30T03:51:16;100755.66;;;15.37;100.00
15263;BME280;7733;51.554;13.590;2022-10-30T03:53:42;100751.84;;;15.47;99.56
15263;BME280;7733;51.554;13.590;2022-10-30T03:56:09;100740.19;;;15.21;100.00
15263;BME280;7733;51.554;13.590;2022-10-30T03:58:34;100744.53;;;15.26;100.00
15263;BME280;7733;51.554;13.590;2022-10-30T04:01:02;100758.09;;;15.12;100.00
15263;BME280;7733;51.554;13.590;2022-10-30T04:03:28;100760.94;;;15.37;100.00
15263;BME280;7733;51.554;13.590;2022-10-30T04:05:54;100754.56;;;14.79;100.00
15263;BME280;7733;51.554;13.590;2022-10-30T04:08:19;100754.81;;;15.04;100.00
15263;BME280;7733;51.554;13.590;2022-10-30T04:10:46;100770.03;;;15.27;100.00
15263;BME280;7733;51.554;13.590;2022-10-30T04:13:14;100772.88;;;15.19;100.00
15263;BME280;7733;51.554;13.590;2022-10-30T04:15:41;100781.72;;;15.18;100.00
15263;BME280;7733;51.554;13.590;2022-10-30T04:18:12;100768.53;;;15.16;100.00
15263;BME280;7733;51.554;13.590;2022-10-30T04:20:38;100774.22;;;15.03;100.00
15263;BME280;7733;51.554;13.590;2022-10-30T04:23:06;100761.97;;;14.99;100.00
15263;BME280;7733;51.554;13.590;2022-10-30T04:25:34;100754.47;;;15.16;100.00
15263;BME280;7733;51.554;13.590;2022-10-30T04:28:00;100757.06;;;15.17;100.00
15263;BME280;7733;51.554;13.590;2022-10-30T04:30:26;100760.47;;;15.23;99.74
15263;BME280;7733;51.554;13.590;2022-10-30T04:32:56;100759.56;;;15.24;99.67
15263;BME280;7733;51.554;13.590;2022-10-30T04:35:24;100759.59;;;15.22;99.26
15263;BME280;7733;51.554;13.590;2022-10-30T04:38:02;100748.13;;;15.21;99.64
15263;BME280;7733;51.554;13.590;2022-10-30T04:40:33;100739.59;;;15.12;100.00
15263;BME280;7733;51.554;13.590;2022-10-30T04:42:59;100744.38;;;14.98;100.00
15263;BME280;7733;51.554;13.590;2022-10-30T04:45:25;100746.50;;;15.17;99.61
15263;BME280;7733;51.554;13.590;2022-10-30T04:47:51;100742.47;;;15.04;100.00
15263;BME280;7733;51.554;13.590;2022-10-30T04:50:18;100732.84;;;15.00;100.00
15263;BME280;7733;51.554;13.590;2022-10-30T04:52:43;100717.69;;;14.74;100.00
15263;BME280;7733;51.554;13.590;2022-10-30T04:55:10;100724.47;;;14.50;100.00
15263;BME280;7733;51.554;13.590;2022-10-30T04:57:37;100727.41;;;14.74;100.00
15263;BME280;7733;51.554;13.590;2022-10-30T05:00:05;100725.72;;;14.71;100.00
15263;BME280;7733;51.554;13.590;2022-10-30T05:02:33;100728.03;;;14.83;100.00
15263;BME280;7733;51.554;13.590;2022-10-30T05:04:59;100713.16;;;14.79;100.00
15263;BME280;7733;51.554;13.590;2022-10-30T05:07:24;100713.97;;;14.49;100.00
15263;BME280;7733;51.554;13.590;2022-10-30T05:09:50;100711.56;;;14.37;100.00
15263;BME280;7733;51.554;13.590;2022-10-30T05:12:16;100703.22;;;14.55;100.00
15263;BME280;7733;51.554;13.590;2022-10-30T05:14:43;100698.69;;;14.60;100.00
15263;BME280;7733;51.554;13.590;2022-10-30T05:17:09;100707.88;;;14.79;100.00
15263;BME280;7733;51.554;13.590;2022-10-30T05:19:35;100714.75;;;14.86;99.62
15263;BME280;7733;51.554;13.590;2022-10-30T05:22:00;100719.59;;;14.69;100.00
15263;BME280;7733;51.554;13.590;2022-10-30T05:24:26;100721.53;;;14.61;100.00
15263;BME280;7733;51.554;13.590;2022-10-30T05:26:51;100717.63;;;14.77;100.00
15263;BME280;7733;51.554;13.590;2022-10-30T05:29:17;100721.50;;;14.64;100.00
15263;BME280;7733;51.554;13.590;2022-10-30T05:31:43;100718.94;;;14.59;100.00
15263;BME280;7733;51.554;13.590;2022-10-30T05:34:08;100719.44;;;14.75;99.22
15263;BME280;7733;51.554;13.590;2022-10-30T05:36:34;100735.41;;;14.71;99.21
15263;BME280;7733;51.554;13.590;2022-10-30T05:38:59;100743.16;;;14.40;100.00
15263;BME280;7733;51.554;13.590;2022-10-30T05:41:27;100747.28;;;14.53;100.00
15263;BME280;7733;51.554;13.590;2022-10-30T05:43:53;100746.38;;;14.54;99.67
15263;BME280;7733;51.554;13.590;2022-10-30T05:46:19;100746.94;;;14.29;100.00
15263;BME280;7733;51.554;13.590;2022-10-30T05:48:44;100743.94;;;14.46;100.00
15263;BME280;7733;51.554;13.590;2022-10-30T05:51:10;100742.25;;;14.44;100.00
15263;BME280;7733;51.554;13.590;2022-10-30T05:53:35;100748.13;;;14.55;100.00
15263;BME280;7733;51.554;13.590;2022-10-30T05:56:01;100742.72;;;14.59;99.56
15263;BME280;7733;51.554;13.590;2022-10-30T05:58:27;100746.72;;;14.39;99.70
15263;BME280;7733;51.554;13.590;2022-10-30T06:00:52;100741.44;;;14.39;100.00
15263;BME280;7733;51.554;13.590;2022-10-30T06:03:18;100744.91;;;14.41;99.76
15263;BME280;7733;51.554;13.590;2022-10-30T06:05:45;100735.63;;;14.24;100.00
15263;BME280;7733;51.554;13.590;2022-10-30T06:08:11;100742.53;;;14.30;100.00
15263;BME280;7733;51.554;13.590;2022-10-30T06:10:37;100744.50;;;14.20;100.00
15263;BME280;7733;51.554;13.590;2022-10-30T06:13:05;100749.66;;;14.26;100.00
15263;BME280;7733;51.554;13.590;2022-10-30T06:15:31;100751.97;;;14.39;99.77
15263;BME280;7733;51.554;13.590;2022-10-30T06:17:58;100747.84;;;14.28;100.00
15263;BME280;7733;51.554;13.590;2022-10-30T06:20:27;100758.28;;;14.33;100.00
15263;BME280;7733;51.554;13.590;2022-10-30T06:23:02;100748.56;;;14.35;99.98
15263;BME280;7733;51.554;13.590;2022-10-30T06:25:32;100756.31;;;14.43;100.00
15263;BME280;7733;51.554;13.590;2022-10-30T06:27:59;100771.59;;;14.28;100.00
15263;BME280;7733;51.554;13.590;2022-10-30T06:30:26;100764.41;;;14.35;100.00
15263;BME280;7733;51.554;13.590;2022-10-30T06:33:03;100769.31;;;14.52;100.00
15263;BME280;7733;51.554;13.590;2022-10-30T06:35:29;100780.97;;;14.43;100.00
15263;BME280;7733;51.554;13.590;2022-10-30T06:37:56;100749.94;;;14.53;99.73
15263;BME280;7733;51.554;13.590;2022-10-30T06:40:26;100753.66;;;14.44;100.00
15263;BME280;7733;51.554;13.590;2022-10-30T06:42:52;100759.16;;;14.34;100.00
15263;BME280;7733;51.554;13.590;2022-10-30T06:45:21;100751.75;;;14.51;100.00
15263;BME280;7733;51.554;13.590;2022-10-30T06:47:47;100758.72;;;14.53;100.00
15263;BME280;7733;51.554;13.590;2022-10-30T06:50:16;100762.22;;;14.54;100.00
15263;BME280;7733;51.554;13.590;2022-10-30T06:52:42;100760.03;;;14.71;100.00
15263;BME280;7733;51.554;13.590;2022-10-30T06:55:09;100754.22;;;14.57;100.00
15263;BME280;7733;51.554;13.590;2022-10-30T06:57:35;100756.25;;;14.81;100.00
15263;BME280;7733;51.554;13.590;2022-10-30T07:00:03;100744.84;;;14.79;100.00
15263;BME280;7733;51.554;13.590;2022-10-30T07:02:29;100762.47;;;14.79;100.00
15263;BME280;7733;51.554;13.590;2022-10-30T07:04:55;100766.03;;;14.78;100.00
15263;BME280;7733;51.554;13.590;2022-10-30T07:07:21;100764.59;;;14.99;100.00
15263;BME280;7733;51.554;13.590;2022-10-30T07:09:46;100750.25;;;15.09;100.00
15263;BME280;7733;51.554;13.590;2022-10-30T07:12:12;100766.88;;;14.78;100.00
15263;BME280;7733;51.554;13.590;2022-10-30T07:14:37;100772.25;;;15.09;100.00
15263;BME280;7733;51.554;13.590;2022-10-30T07:17:03;100761.44;;;15.18;100.00
15263;BME280;7733;51.554;13.590;2022-10-30T07:19:29;100756.97;;;15.22;100.00
15263;BME280;7733;51.554;13.590;2022-10-30T07:21:54;100759.66;;;15.19;100.00
15263;BME280;7733;51.554;13.590;2022-10-30T07:24:20;100745.66;;;15.15;100.00
15263;BME280;7733;51.554;13.590;2022-10-30T07:26:46;100746.22;;;15.28;100.00
15263;BME280;7733;51.554;13.590;2022-10-30T07:29:11;100747.56;;;15.41;100.00
15263;BME280;7733;51.554;13.590;2022-10-30T07:31:37;100747.75;;;15.35;100.00
15263;BME280;7733;51.554;13.590;2022-10-30T07:34:03;100742.47;;;15.35;100.00
15263;BME280;7733;51.554;13.590;2022-10-30T07:36:29;100751.06;;;15.43;100.00
15263;BME280;7733;51.554;13.590;2022-10-30T07:38:54;100773.38;;;15.33;100.00
15263;BME280;7733;51.554;13.590;2022-10-30T07:41:20;100754.69;;;15.39;100.00
15263;BME280;7733;51.554;13.590;2022-10-30T07:43:46;100761.81;;;15.37;100.00
15263;BME280;7733;51.554;13.590;2022-10-30T07:46:13;100767.31;;;15.62;100.00
15263;BME280;7733;51.554;13.590;2022-10-30T07:48:38;100769.13;;;15.60;100.00
15263;BME280;7733;51.554;13.590;2022-10-30T07:51:05;100772.28;;;15.73;100.00
15263;BME280;7733;51.554;13.590;2022-10-30T07:53:31;100765.72;;;15.55;100.00
15263;BME280;7733;51.554;13.590;2022-10-30T07:55:56;100760.25;;;15.92;100.00
15263;BME280;7733;51.554;13.590;2022-10-30T07:58:22;100763.34;;;16.06;100.00
15263;BME280;7733;51.554;13.590;2022-10-30T08:00:48;100779.09;;;16.11;100.00
15263;BME280;7733;51.554;13.590;2022-10-30T08:03:14;100762.34;;;16.10;100.00
15263;BME280;7733;51.554;13.590;2022-10-30T08:05:40;100750.53;;;16.21;100.00
15263;BME280;7733;51.554;13.590;2022-10-30T08:08:07;100755.25;;;16.39;100.00
15263;BME280;7733;51.554;13.590;2022-10-30T08:10:34;100759.59;;;16.41;100.00
15263;BME280;7733;51.554;13.590;2022-10-30T08:13:00;100756.59;;;16.52;100.00
15263;BME280;7733;51.554;13.590;2022-10-30T08:15:26;100748.94;;;16.71;100.00
15263;BME280;7733;51.554;13.590;2022-10-30T08:17:51;100748.19;;;16.67;100.00
15263;BME280;7733;51.554;13.590;2022-10-30T08:20:20;100744.53;;;16.71;100.00
15263;BME280;7733;51.554;13.590;2022-10-30T08:22:55;100740.44;;;16.88;100.00
15263;BME280;7733;51.554;13.590;2022-10-30T08:25:27;100740.97;;;16.97;100.00
15263;BME280;7733;51.554;13.590;2022-10-30T08:28:03;100738.88;;;17.07;100.00
15263;BME280;7733;51.554;13.590;2022-10-30T08:30:32;100743.16;;;17.11;100.00
15263;BME280;7733;51.554;13.590;2022-10-30T08:33:01;100739.63;;;17.36;98.09
15263;BME280;7733;51.554;13.590;2022-10-30T08:35:27;100739.69;;;17.57;94.87
15263;BME280;7733;51.554;13.590;2022-10-30T08:37:57;100745.00;;;17.57;93.43
15263;BME280;7733;51.554;13.590;2022-10-30T08:40:24;100740.75;;;17.77;91.73
15263;BME280;7733;51.554;13.590;2022-10-30T08:42:52;100731.75;;;17.81;90.22
15263;BME280;7733;51.554;13.590;2022-10-30T08:45:19;100746.72;;;17.83;91.29
15263;BME280;7733;51.554;13.590;2022-10-30T08:47:45;100741.91;;;17.93;88.73
15263;BME280;7733;51.554;13.590;2022-10-30T08:50:10;100738.94;;;18.01;88.46
15263;BME280;7733;51.554;13.590;2022-10-30T08:52:36;100745.59;;;18.12;87.24
15263;BME280;7733;51.554;13.590;2022-10-30T08:55:02;100740.47;;;18.08;87.11
15263;BME280;7733;51.554;13.590;2022-10-30T08:57:27;100743.75;;;18.36;87.29
15263;BME280;7733;51.554;13.590;2022-10-30T08:59:53;100749.97;;;18.35;86.94
15263;BME280;7733;51.554;13.590;2022-10-30T09:02:18;100748.25;;;18.56;86.57
15263;BME280;7733;51.554;13.590;2022-10-30T09:04:44;100746.91;;;18.68;85.26
15263;BME280;7733;51.554;13.590;2022-10-30T09:07:10;100744.66;;;18.79;85.23
15263;BME280;7733;51.554;13.590;2022-10-30T09:09:35;100740.59;;;18.70;86.08
15263;BME280;7733;51.554;13.590;2022-10-30T09:12:01;100743.16;;;18.94;85.50
15263;BME280;7733;51.554;13.590;2022-10-30T09:14:27;100745.72;;;18.95;84.50
15263;BME280;7733;51.554;13.590;2022-10-30T09:16:53;100749.06;;;19.21;83.81
15263;BME280;7733;51.554;13.590;2022-10-30T09:19:19;100738.53;;;19.38;83.67
15263;BME280;7733;51.554;13.590;2022-10-30T09:21:45;100737.84;;;19.53;81.59
15263;BME280;7733;51.554;13.590;2022-10-30T09:24:11;100736.66;;;19.60;81.86
15263;BME280;7733;51.554;13.590;2022-10-30T09:26:36;100735.31;;;19.70;80.62
15263;BME280;7733;51.554;13.590;2022-10-30T09:29:02;100747.00;;;19.87;80.50
15263;BME280;7733;51.554;13.590;2022-10-30T09:31:27;100737.06;;;19.90;80.67
15263;BME280;7733;51.554;13.590;2022-10-30T09:33:53;100749.34;;;20.12;80.78
15263;BME280;7733;51.554;13.590;2022-10-30T09:36:19;100741.72;;;20.23;80.13
15263;BME280;7733;51.554;13.590;2022-10-30T09:38:44;100748.47;;;20.30;79.69
15263;BME280;7733;51.554;13.590;2022-10-30T09:50:41;100754.06;;;20.79;78.79
15263;BME280;7733;51.554;13.590;2022-10-30T09:56:18;100763.09;;;20.93;76.45
15263;BME280;7733;51.554;13.590;2022-10-30T09:59:15;100761.28;;;20.94;76.61
15263;BME280;7733;51.554;13.590;2022-10-30T10:04:49;100758.88;;;21.07;74.72
15263;BME280;7733;51.554;13.590;2022-10-30T10:07:29;100761.06;;;21.33;75.04
15263;BME280;7733;51.554;13.590;2022-10-30T10:10:03;100767.50;;;21.46;75.16
15263;BME280;7733;51.554;13.590;2022-10-30T10:12:44;100759.88;;;21.39;75.29
15263;BME280;7733;51.554;13.590;2022-10-30T10:15:20;100764.19;;;21.41;74.17
15263;BME280;7733;51.554;13.590;2022-10-30T10:17:50;100760.22;;;21.66;73.30
15263;BME280;7733;51.554;13.590;2022-10-30T10:20:35;100763.41;;;21.72;73.93
15263;BME280;7733;51.554;13.590;2022-10-30T10:23:18;100760.75;;;21.72;73.41
15263;BME280;7733;51.554;13.590;2022-10-30T10:25:52;100755.63;;;21.85;73.29
15263;BME280;7733;51.554;13.590;2022-10-30T10:28:54;100760.09;;;22.00;74.24
15263;BME280;7733;51.554;13.590;2022-10-30T10:31:47;100748.69;;;22.14;73.64
15263;BME280;7733;51.554;13.590;2022-10-30T10:35:15;100756.66;;;21.98;72.01
15263;BME280;7733;51.554;13.590;2022-10-30T10:38:23;100752.06;;;22.00;72.87
15263;BME280;7733;51.554;13.590;2022-10-30T10:41:47;100758.09;;;22.05;72.41
15263;BME280;7733;51.554;13.590;2022-10-30T10:47:38;100739.03;;;22.27;71.72
15263;BME280;7733;51.554;13.590;2022-10-30T10:50:28;100744.38;;;22.43;70.98
15263;BME280;7733;51.554;13.590;2022-10-30T10:52:59;100733.53;;;22.60;72.21
15263;BME280;7733;51.554;13.590;2022-10-30T10:55:31;100735.31;;;22.75;72.30
15263;BME280;7733;51.554;13.590;2022-10-30T10:58:12;100730.47;;;22.82;71.16
15263;BME280;7733;51.554;13.590;2022-10-30T11:00:40;100732.34;;;22.80;69.28
15263;BME280;7733;51.554;13.590;2022-10-30T11:03:24;100733.88;;;23.00;71.03
15263;BME280;7733;51.554;13.590;2022-10-30T11:06:10;100732.44;;;22.78;67.95
15263;BME280;7733;51.554;13.590;2022-10-30T11:08:36;100729.28;;;22.88;67.23
15263;BME280;7733;51.554;13.590;2022-10-30T11:11:05;100725.66;;;22.89;67.34
15263;BME280;7733;51.554;13.590;2022-10-30T11:13:40;100723.16;;;23.00;67.43
15263;BME280;7733;51.554;13.590;2022-10-30T11:16:28;100725.09;;;22.98;66.96
15263;BME280;7733;51.554;13.590;2022-10-30T11:19:00;100725.81;;;23.30;66.06
15263;BME280;7733;51.554;13.590;2022-10-30T11:21:31;100721.13;;;23.33;65.01
15263;BME280;7733;51.554;13.590;2022-10-30T11:23:59;100724.50;;;23.51;66.18
15263;BME280;7733;51.554;13.590;2022-10-30T11:26:31;100727.53;;;23.31;65.48
15263;BME280;7733;51.554;13.590;2022-10-30T11:31:34;100720.25;;;23.04;64.49
15263;BME280;7733;51.554;13.590;2022-10-30T11:36:52;100720.75;;;23.40;66.78
15263;BME280;7733;51.554;13.590;2022-10-30T11:39:31;100717.91;;;23.43;65.68
15263;BME280;7733;51.554;13.590;2022-10-30T11:42:04;100717.69;;;23.31;64.86
15263;BME280;7733;51.554;13.590;2022-10-30T11:44:40;100724.38;;;23.53;65.36
15263;BME280;7733;51.554;13.590;2022-10-30T11:47:07;100726.28;;;23.36;65.56
15263;BME280;7733;51.554;13.590;2022-10-30T11:52:12;100721.88;;;23.35;65.59
15263;BME280;7733;51.554;13.590;2022-10-30T11:54:49;100715.03;;;23.46;64.72
15263;BME280;7733;51.554;13.590;2022-10-30T11:57:39;100713.41;;;23.43;63.96
15263;BME280;7733;51.554;13.590;2022-10-30T12:00:16;100702.09;;;23.81;62.96
15263;BME280;7733;51.554;13.590;2022-10-30T12:02:46;100709.06;;;23.55;63.99
15263;BME280;7733;51.554;13.590;2022-10-30T12:05:37;100704.06;;;23.64;65.04
15263;BME280;7733;51.554;13.590;2022-10-30T12:10:56;100697.41;;;23.56;65.51
15263;BME280;7733;51.554;13.590;2022-10-30T12:13:22;100697.59;;;23.81;63.99
15263;BME280;7733;51.554;13.590;2022-10-30T12:16:17;100705.66;;;23.67;65.33
15263;BME280;7733;51.554;13.590;2022-10-30T12:19:04;100691.88;;;23.87;64.22
15263;BME280;7733;51.554;13.590;2022-10-30T12:21:36;100699.63;;;23.78;64.30
15263;BME280;7733;51.554;13.590;2022-10-30T12:24:05;100691.66;;;23.90;64.32
15263;BME280;7733;51.554;13.590;2022-10-30T12:26:38;100697.13;;;23.89;64.31
15263;BME280;7733;51.554;13.590;2022-10-30T12:29:13;100712.72;;;23.82;63.93
15263;BME280;7733;51.554;13.590;2022-10-30T12:32:00;100700.25;;;23.95;63.68
15263;BME280;7733;51.554;13.590;2022-10-30T12:34:32;100703.38;;;24.02;63.53
15263;BME280;7733;51.554;13.590;2022-10-30T12:37:08;100702.19;;;23.93;62.89
15263;BME280;7733;51.554;13.590;2022-10-30T12:39:46;100701.31;;;23.93;64.50
15263;BME280;7733;51.554;13.590;2022-10-30T12:42:16;100701.00;;;23.97;61.54
15263;BME280;7733;51.554;13.590;2022-10-30T12:45:12;100695.94;;;24.07;62.22
15263;BME280;7733;51.554;13.590;2022-10-30T12:47:59;100696.78;;;24.08;62.80
15263;BME280;7733;51.554;13.590;2022-10-30T12:50:36;100693.00;;;24.24;61.54
15263;BME280;7733;51.554;13.590;2022-10-30T12:53:26;100697.66;;;24.08;62.78
15263;BME280;7733;51.554;13.590;2022-10-30T12:56:02;100691.78;;;24.30;62.46
15263;BME280;7733;51.554;13.590;2022-10-30T12:58:43;100689.50;;;24.10;62.97
15263;BME280;7733;51.554;13.590;2022-10-30T13:01:16;100696.34;;;24.28;62.40
15263;BME280;7733;51.554;13.590;2022-10-30T13:04:08;100697.31;;;24.27;63.26
15263;BME280;7733;51.554;13.590;2022-10-30T13:06:45;100686.84;;;24.37;62.68
15263;BME280;7733;51.554;13.590;2022-10-30T13:09:25;100694.97;;;24.08;62.59
15263;BME280;7733;51.554;13.590;2022-10-30T13:12:02;100696.72;;;24.36;62.66
15263;BME280;7733;51.554;13.590;2022-10-30T13:14:40;100691.09;;;24.53;63.65
15263;BME280;7733;51.554;13.590;2022-10-30T13:17:12;100689.19;;;24.29;63.38
15263;BME280;7733;51.554;13.590;2022-10-30T13:19:45;100684.47;;;24.32;62.70
15263;BME280;7733;51.554;13.590;2022-10-30T13:22:54;100687.16;;;24.32;62.40
15263;BME280;7733;51.554;13.590;2022-10-30T13:25:59;100687.88;;;24.48;61.51
15263;BME280;7733;51.554;13.590;2022-10-30T13:28:42;100684.69;;;24.29;63.23
15263;BME280;7733;51.554;13.590;2022-10-30T13:31:26;100682.75;;;24.31;63.59
15263;BME280;7733;51.554;13.590;2022-10-30T13:34:15;100683.84;;;24.14;63.18
15263;BME280;7733;51.554;13.590;2022-10-30T13:37:15;100672.91;;;24.17;61.89
15263;BME280;7733;51.554;13.590;2022-10-30T13:40:19;100677.50;;;24.15;62.34
15263;BME280;7733;51.554;13.590;2022-10-30T13:43:23;100669.16;;;24.20;62.96
15263;BME280;7733;51.554;13.590;2022-10-30T13:46:22;100669.72;;;23.98;63.02
15263;BME280;7733;51.554;13.590;2022-10-30T13:49:27;100659.28;;;24.20;62.86
15263;BME280;7733;51.554;13.590;2022-10-30T13:52:05;100666.69;;;24.17;63.06
15263;BME280;7733;51.554;13.590;2022-10-30T13:55:14;100665.41;;;23.95;63.29